createdAt,value
2017-03-14T00:00:21.998Z,0
2017-03-14T00:01:02.458Z,0
2017-03-14T00:01:42.934Z,0
2017-03-14T00:02:23.418Z,0
2017-03-14T00:03:03.856Z,0
2017-03-14T00:03:44.368Z,0
2017-03-14T00:04:24.821Z,0
2017-03-14T00:05:05.316Z,0
2017-03-14T00:05:45.785Z,0
2017-03-14T00:06:26.271Z,0
2017-03-14T00:07:06.752Z,0
2017-03-14T00:07:47.201Z,0
2017-03-14T00:08:27.701Z,0
2017-03-14T00:09:08.162Z,0
2017-03-14T00:09:48.652Z,0
2017-03-14T00:10:29.139Z,0
2017-03-14T00:11:09.603Z,0
2017-03-14T00:11:50.063Z,0
2017-03-14T00:12:30.546Z,0
2017-03-14T00:13:11.066Z,0
2017-03-14T00:13:51.517Z,0
2017-03-14T00:14:31.984Z,0
2017-03-14T00:15:12.459Z,0
2017-03-14T00:15:52.940Z,0
2017-03-14T00:16:33.424Z,0
2017-03-14T00:17:13.928Z,0
2017-03-14T00:17:54.384Z,0
2017-03-14T00:18:34.848Z,0
2017-03-14T00:19:15.322Z,0
2017-03-14T00:19:55.813Z,0
2017-03-14T00:20:36.279Z,0
2017-03-14T00:21:16.789Z,0
2017-03-14T00:21:57.280Z,0
2017-03-14T00:22:37.771Z,0
2017-03-14T00:23:18.259Z,0
2017-03-14T00:23:58.729Z,0
2017-03-14T00:24:39.177Z,0
2017-03-14T00:25:19.673Z,0
2017-03-14T00:26:00.161Z,0
2017-03-14T00:26:40.615Z,0
2017-03-14T00:27:21.083Z,0
2017-03-14T00:28:01.568Z,0
2017-03-14T00:28:42.038Z,0
2017-03-14T00:29:22.578Z,0
2017-03-14T00:30:02.981Z,0
2017-03-14T00:30:43.495Z,0
2017-03-14T00:31:23.980Z,0
2017-03-14T00:32:04.472Z,0
2017-03-14T00:32:44.944Z,0
2017-03-14T00:33:25.435Z,0
2017-03-14T00:34:05.904Z,0
2017-03-14T00:34:46.392Z,0
2017-03-14T00:35:26.841Z,0
2017-03-14T00:36:07.334Z,0
2017-03-14T00:36:47.822Z,0
2017-03-14T00:37:28.273Z,0
2017-03-14T00:38:08.744Z,0
2017-03-14T00:38:49.240Z,0
2017-03-14T00:39:29.712Z,0
2017-03-14T00:40:10.196Z,0
2017-03-14T00:40:50.661Z,0
2017-03-14T00:41:31.112Z,0
2017-03-14T00:42:11.745Z,0
2017-03-14T00:42:52.213Z,0
2017-03-14T00:43:32.686Z,0
2017-03-14T00:44:13.169Z,0
2017-03-14T00:44:53.649Z,0
2017-03-14T00:45:34.156Z,0
2017-03-14T00:46:14.675Z,0
2017-03-14T00:46:57.126Z,0
2017-03-14T00:47:37.586Z,0
2017-03-14T00:48:18.069Z,0
2017-03-14T00:48:58.558Z,0
2017-03-14T00:49:39.050Z,0
2017-03-14T00:50:19.594Z,0
2017-03-14T00:51:00.044Z,0
2017-03-14T00:51:40.506Z,0
2017-03-14T00:52:21.015Z,0
2017-03-14T00:53:01.460Z,0
2017-03-14T00:53:41.948Z,0
2017-03-14T00:54:22.414Z,0
2017-03-14T00:55:02.892Z,0
2017-03-14T00:55:43.361Z,0
2017-03-14T00:56:23.814Z,0
2017-03-14T00:57:04.320Z,0
2017-03-14T00:57:44.760Z,0
2017-03-14T00:58:25.266Z,0
2017-03-14T00:59:05.728Z,0
2017-03-14T00:59:46.198Z,0
2017-03-14T01:00:26.680Z,0
2017-03-14T01:01:07.170Z,0
2017-03-14T01:01:47.652Z,0
2017-03-14T01:02:28.095Z,0
2017-03-14T01:03:08.592Z,0
2017-03-14T01:03:49.071Z,0
2017-03-14T01:04:29.524Z,0
2017-03-14T01:05:10.016Z,0
2017-03-14T01:05:50.471Z,0
2017-03-14T01:06:30.959Z,0
2017-03-14T01:07:11.470Z,0
2017-03-14T01:07:51.971Z,0
2017-03-14T01:08:32.422Z,0
2017-03-14T01:09:12.905Z,0
2017-03-14T01:09:53.371Z,0
2017-03-14T01:10:33.849Z,0
2017-03-14T01:11:14.309Z,0
2017-03-14T01:11:54.774Z,0
2017-03-14T01:12:35.281Z,0
2017-03-14T01:13:15.764Z,0
2017-03-14T01:13:56.248Z,0
2017-03-14T01:14:36.675Z,0
2017-03-14T01:15:17.167Z,0
2017-03-14T01:15:57.647Z,0
2017-03-14T01:16:38.124Z,0
2017-03-14T01:17:18.629Z,0
2017-03-14T01:17:59.066Z,0
2017-03-14T01:18:39.546Z,0
2017-03-14T01:19:20.034Z,0
2017-03-14T01:20:00.470Z,0
2017-03-14T01:20:40.975Z,0
2017-03-14T01:21:21.437Z,0
2017-03-14T01:22:01.971Z,0
2017-03-14T01:22:42.440Z,0
2017-03-14T01:23:22.915Z,0
2017-03-14T01:24:03.367Z,0
2017-03-14T01:24:43.862Z,0
2017-03-14T01:25:24.342Z,0
2017-03-14T01:26:04.861Z,0
2017-03-14T01:26:45.333Z,0
2017-03-14T01:27:25.807Z,0
2017-03-14T01:28:06.278Z,0
2017-03-14T01:28:46.752Z,0
2017-03-14T01:29:27.218Z,0
2017-03-14T01:30:07.693Z,0
2017-03-14T01:30:48.165Z,0
2017-03-14T01:31:28.631Z,0
2017-03-14T01:32:09.096Z,0
2017-03-14T01:32:49.632Z,0
2017-03-14T01:33:30.108Z,0
2017-03-14T01:34:10.564Z,0
2017-03-14T01:34:51.043Z,0
2017-03-14T01:35:31.498Z,0
2017-03-14T01:36:11.931Z,0
2017-03-14T01:36:52.431Z,0
2017-03-14T01:37:32.869Z,0
2017-03-14T01:38:13.343Z,0
2017-03-14T01:38:53.827Z,0
2017-03-14T01:39:34.259Z,0
2017-03-14T01:40:14.806Z,0
2017-03-14T01:40:55.264Z,0
2017-03-14T01:41:35.726Z,0
2017-03-14T01:42:16.215Z,0
2017-03-14T01:42:56.666Z,0
2017-03-14T01:43:37.169Z,0
2017-03-14T01:44:17.624Z,0
2017-03-14T01:44:58.076Z,0
2017-03-14T01:45:38.591Z,0
2017-03-14T01:46:19.047Z,0
2017-03-14T01:46:59.550Z,0
2017-03-14T01:47:40.064Z,0
2017-03-14T01:48:20.585Z,0
2017-03-14T01:49:01.048Z,0
2017-03-14T01:49:41.527Z,0
2017-03-14T01:50:22.020Z,0
2017-03-14T01:51:02.472Z,0
2017-03-14T01:51:42.944Z,0
2017-03-14T01:52:23.432Z,0
2017-03-14T01:53:03.895Z,0
2017-03-14T01:53:44.393Z,0
2017-03-14T01:54:24.844Z,0
2017-03-14T01:55:05.349Z,0
2017-03-14T01:55:45.848Z,0
2017-03-14T01:56:26.288Z,0
2017-03-14T01:57:06.792Z,0
2017-03-14T01:57:47.242Z,0
2017-03-14T01:58:27.720Z,0
2017-03-14T01:59:08.182Z,0
2017-03-14T01:59:48.649Z,0
2017-03-14T02:00:29.120Z,0
2017-03-14T02:01:09.588Z,0
2017-03-14T02:01:50.077Z,0
2017-03-14T02:02:30.538Z,0
2017-03-14T02:03:11.022Z,0
2017-03-14T02:03:51.510Z,0
2017-03-14T02:04:31.980Z,0
2017-03-14T02:05:12.431Z,0
2017-03-14T02:05:52.934Z,0
2017-03-14T02:06:33.397Z,0
2017-03-14T02:07:13.868Z,0
2017-03-14T02:07:54.370Z,0
2017-03-14T02:08:34.825Z,0
2017-03-14T02:09:15.288Z,0
2017-03-14T02:09:55.768Z,0
2017-03-14T02:10:36.237Z,0
2017-03-14T02:11:16.713Z,0
2017-03-14T02:11:57.233Z,0
2017-03-14T02:12:37.712Z,0
2017-03-14T02:13:18.198Z,0
2017-03-14T02:13:58.685Z,0
2017-03-14T02:14:39.113Z,0
2017-03-14T02:15:19.649Z,0
2017-03-14T02:16:00.091Z,0
2017-03-14T02:16:40.561Z,0
2017-03-14T02:17:21.025Z,0
2017-03-14T02:18:01.523Z,0
2017-03-14T02:18:41.999Z,0
2017-03-14T02:19:22.500Z,0
2017-03-14T02:20:02.982Z,0
2017-03-14T02:20:43.450Z,0
2017-03-14T02:21:23.921Z,0
2017-03-14T02:22:04.402Z,0
2017-03-14T02:22:44.909Z,0
2017-03-14T02:23:25.398Z,0
2017-03-14T02:24:05.885Z,0
2017-03-14T02:24:46.339Z,0
2017-03-14T02:25:26.795Z,0
2017-03-14T02:26:07.300Z,0
2017-03-14T02:26:47.764Z,0
2017-03-14T02:27:28.243Z,0
2017-03-14T02:28:08.733Z,0
2017-03-14T02:28:49.255Z,0
2017-03-14T02:29:29.695Z,0
2017-03-14T02:30:10.192Z,0
2017-03-14T02:30:50.668Z,0
2017-03-14T02:31:31.129Z,0
2017-03-14T02:32:11.625Z,0
2017-03-14T02:32:52.102Z,0
2017-03-14T02:33:32.571Z,0
2017-03-14T02:34:13.075Z,0
2017-03-14T02:34:53.510Z,0
2017-03-14T02:35:34.010Z,0
2017-03-14T02:36:14.503Z,0
2017-03-14T02:36:55.007Z,0
2017-03-14T02:37:35.462Z,0
2017-03-14T02:38:15.929Z,0
2017-03-14T02:38:56.413Z,0
2017-03-14T02:39:36.909Z,0
2017-03-14T02:40:17.356Z,0
2017-03-14T02:40:57.837Z,0
2017-03-14T02:41:38.283Z,0
2017-03-14T02:42:18.748Z,0
2017-03-14T02:42:59.248Z,0
2017-03-14T02:43:39.733Z,0
2017-03-14T02:44:20.206Z,0
2017-03-14T02:45:00.677Z,0
2017-03-14T02:45:41.136Z,0
2017-03-14T02:46:21.648Z,0
2017-03-14T02:47:02.171Z,0
2017-03-14T02:47:42.617Z,0
2017-03-14T02:48:23.091Z,0
2017-03-14T02:49:03.579Z,0
2017-03-14T02:49:44.059Z,0
2017-03-14T02:50:24.513Z,0
2017-03-14T02:51:05.041Z,0
2017-03-14T02:51:45.506Z,0
2017-03-14T02:52:25.984Z,0
2017-03-14T02:53:06.454Z,0
2017-03-14T02:53:46.930Z,0
2017-03-14T02:54:27.367Z,0
2017-03-14T02:55:07.831Z,0
2017-03-14T02:55:48.316Z,0
2017-03-14T02:56:28.832Z,0
2017-03-14T02:57:09.265Z,0
2017-03-14T02:57:49.776Z,0
2017-03-14T02:58:30.281Z,0
2017-03-14T02:59:10.757Z,0
2017-03-14T02:59:51.215Z,0
2017-03-14T03:00:31.703Z,0
2017-03-14T03:01:12.213Z,0
2017-03-14T03:01:52.719Z,0
2017-03-14T03:02:33.170Z,0
2017-03-14T03:03:13.635Z,0
2017-03-14T03:03:54.121Z,0
2017-03-14T03:04:34.587Z,0
2017-03-14T03:05:15.083Z,0
2017-03-14T03:05:55.563Z,0
2017-03-14T03:06:36.031Z,0
2017-03-14T03:07:16.504Z,0
2017-03-14T03:07:56.974Z,0
2017-03-14T03:08:37.446Z,0
2017-03-14T03:09:17.926Z,0
2017-03-14T03:09:58.434Z,0
2017-03-14T03:10:38.895Z,0
2017-03-14T03:11:19.379Z,0
2017-03-14T03:11:59.868Z,0
2017-03-14T03:12:40.322Z,0
2017-03-14T03:13:20.800Z,0
2017-03-14T03:14:01.288Z,0
2017-03-14T03:14:41.743Z,0
2017-03-14T03:15:22.224Z,0
2017-03-14T03:16:02.697Z,0
2017-03-14T03:16:43.173Z,0
2017-03-14T03:17:23.642Z,0
2017-03-14T03:18:04.090Z,0
2017-03-14T03:18:44.616Z,0
2017-03-14T03:19:25.031Z,0
2017-03-14T03:20:05.488Z,0
2017-03-14T03:20:45.936Z,0
2017-03-14T03:21:26.439Z,0
2017-03-14T03:22:06.896Z,0
2017-03-14T03:22:47.365Z,0
2017-03-14T03:23:27.828Z,0
2017-03-14T03:24:08.346Z,0
2017-03-14T03:24:48.810Z,0
2017-03-14T03:25:29.271Z,0
2017-03-14T03:26:09.759Z,0
2017-03-14T03:26:50.228Z,0
2017-03-14T03:27:30.674Z,0
2017-03-14T03:28:11.152Z,0
2017-03-14T03:28:51.649Z,0
2017-03-14T03:29:32.101Z,0
2017-03-14T03:30:12.560Z,0
2017-03-14T03:30:53.052Z,0
2017-03-14T03:31:33.505Z,0
2017-03-14T03:32:13.986Z,0
2017-03-14T03:32:54.450Z,0
2017-03-14T03:33:34.917Z,0
2017-03-14T03:34:15.375Z,0
2017-03-14T03:34:55.859Z,0
2017-03-14T03:35:36.335Z,0
2017-03-14T03:36:16.861Z,0
2017-03-14T03:36:57.329Z,0
2017-03-14T03:37:37.820Z,0
2017-03-14T03:38:18.290Z,0
2017-03-14T03:38:58.770Z,0
2017-03-14T03:39:39.258Z,0
2017-03-14T03:40:19.760Z,0
2017-03-14T03:41:00.242Z,0
2017-03-14T03:41:40.714Z,0
2017-03-14T03:42:21.189Z,0
2017-03-14T03:43:01.695Z,0
2017-03-14T03:43:42.183Z,0
2017-03-14T03:44:22.647Z,0
2017-03-14T03:45:03.116Z,0
2017-03-14T03:45:43.610Z,0
2017-03-14T03:46:24.063Z,0
2017-03-14T03:47:04.522Z,0
2017-03-14T03:47:45.041Z,0
2017-03-14T03:48:25.514Z,0
2017-03-14T03:49:05.968Z,0
2017-03-14T03:49:46.422Z,0
2017-03-14T03:50:26.919Z,0
2017-03-14T03:51:07.399Z,0
2017-03-14T03:51:47.865Z,0
2017-03-14T03:52:28.338Z,0
2017-03-14T03:53:08.832Z,0
2017-03-14T03:53:49.302Z,0
2017-03-14T03:54:29.792Z,0
2017-03-14T03:55:10.255Z,0
2017-03-14T03:55:50.760Z,0
2017-03-14T03:56:31.240Z,0
2017-03-14T03:57:11.718Z,0
2017-03-14T03:57:52.205Z,0
2017-03-14T03:58:32.686Z,0
2017-03-14T03:59:13.182Z,0
2017-03-14T03:59:53.657Z,0
2017-03-14T04:00:34.143Z,0
2017-03-14T04:01:14.603Z,0
2017-03-14T04:01:55.111Z,0
2017-03-14T04:02:35.562Z,0
2017-03-14T04:03:16.020Z,0
2017-03-14T04:03:56.501Z,0
2017-03-14T04:04:37.029Z,0
2017-03-14T04:05:17.450Z,0
2017-03-14T04:05:57.920Z,0
2017-03-14T04:06:38.389Z,0
2017-03-14T04:07:18.863Z,0
2017-03-14T04:07:59.333Z,0
2017-03-14T04:08:39.815Z,0
2017-03-14T04:09:20.275Z,0
2017-03-14T04:10:00.731Z,0
2017-03-14T04:10:41.218Z,0
2017-03-14T04:11:21.699Z,0
2017-03-14T04:12:02.163Z,0
2017-03-14T04:12:42.665Z,0
2017-03-14T04:13:23.140Z,0
2017-03-14T04:14:03.627Z,0
2017-03-14T04:14:44.084Z,0
2017-03-14T04:15:24.587Z,0
2017-03-14T04:16:05.076Z,0
2017-03-14T04:16:45.587Z,0
2017-03-14T04:17:26.046Z,0
2017-03-14T04:18:06.565Z,0
2017-03-14T04:18:47.007Z,0
2017-03-14T04:19:27.506Z,0
2017-03-14T04:20:07.956Z,0
2017-03-14T04:20:48.408Z,0
2017-03-14T04:21:28.892Z,0
2017-03-14T04:22:09.367Z,0
2017-03-14T04:22:49.885Z,0
2017-03-14T04:23:30.353Z,0
2017-03-14T04:24:10.823Z,0
2017-03-14T04:24:51.316Z,0
2017-03-14T04:25:31.782Z,0
2017-03-14T04:26:12.272Z,0
2017-03-14T04:26:52.777Z,0
2017-03-14T04:27:33.262Z,0
2017-03-14T04:28:13.748Z,0
2017-03-14T04:28:54.197Z,0
2017-03-14T04:29:34.688Z,0
2017-03-14T04:30:15.143Z,0
2017-03-14T04:30:55.614Z,0
2017-03-14T04:31:36.088Z,0
2017-03-14T04:32:16.537Z,0
2017-03-14T04:32:56.990Z,0
2017-03-14T04:33:37.516Z,0
2017-03-14T04:34:17.962Z,0
2017-03-14T04:34:58.438Z,0
2017-03-14T04:35:38.942Z,0
2017-03-14T04:36:19.374Z,0
2017-03-14T04:36:59.888Z,0
2017-03-14T04:37:40.318Z,0
2017-03-14T04:38:20.793Z,0
2017-03-14T04:39:01.303Z,0
2017-03-14T04:39:41.765Z,0
2017-03-14T04:40:22.209Z,0
2017-03-14T04:41:02.725Z,0
2017-03-14T04:41:43.165Z,0
2017-03-14T04:42:23.641Z,0
2017-03-14T04:43:04.117Z,0
2017-03-14T04:43:44.592Z,0
2017-03-14T04:44:25.089Z,0
2017-03-14T04:45:05.524Z,0
2017-03-14T04:45:46.028Z,0
2017-03-14T04:46:26.454Z,0
2017-03-14T04:47:06.956Z,0
2017-03-14T04:47:47.422Z,0
2017-03-14T04:48:27.892Z,0
2017-03-14T04:49:08.376Z,0
2017-03-14T04:49:48.835Z,0
2017-03-14T04:50:29.336Z,0
2017-03-14T04:51:09.810Z,0
2017-03-14T04:51:50.259Z,0
2017-03-14T04:52:30.763Z,0
2017-03-14T04:53:11.246Z,0
2017-03-14T04:53:51.717Z,0
2017-03-14T04:54:32.200Z,0
2017-03-14T04:55:12.664Z,0
2017-03-14T04:55:53.163Z,0
2017-03-14T04:56:33.610Z,0
2017-03-14T04:57:14.083Z,0
2017-03-14T04:57:54.545Z,0
2017-03-14T04:58:35.047Z,0
2017-03-14T04:59:15.511Z,0
2017-03-14T04:59:55.989Z,0
2017-03-14T05:00:36.458Z,0
2017-03-14T05:01:16.919Z,0
2017-03-14T05:01:57.411Z,0
2017-03-14T05:02:37.884Z,0
2017-03-14T05:03:18.351Z,0
2017-03-14T05:03:58.850Z,0
2017-03-14T05:04:39.297Z,0
2017-03-14T05:05:19.778Z,0
2017-03-14T05:06:00.253Z,0
2017-03-14T05:06:40.734Z,0
2017-03-14T05:07:21.199Z,0
2017-03-14T05:08:01.677Z,0
2017-03-14T05:08:42.162Z,0
2017-03-14T05:09:22.617Z,0
2017-03-14T05:10:03.079Z,0
2017-03-14T05:10:43.599Z,0
2017-03-14T05:11:24.017Z,4
2017-03-14T05:12:04.495Z,4
2017-03-14T05:12:44.989Z,4
2017-03-14T05:13:25.479Z,4
2017-03-14T05:14:05.948Z,0
2017-03-14T05:14:46.424Z,4
2017-03-14T05:15:26.918Z,4
2017-03-14T05:16:07.361Z,4
2017-03-14T05:16:47.920Z,8
2017-03-14T05:17:28.367Z,4
2017-03-14T05:18:08.852Z,8
2017-03-14T05:18:49.321Z,8
2017-03-14T05:19:30.147Z,8
2017-03-14T05:20:10.629Z,12
2017-03-14T05:20:51.115Z,8
2017-03-14T05:21:38.491Z,16
2017-03-14T05:22:18.991Z,16
2017-03-14T05:22:59.458Z,16
2017-03-14T05:23:39.926Z,16
2017-03-14T05:24:20.410Z,20
2017-03-14T05:25:00.884Z,24
2017-03-14T05:25:41.373Z,28
2017-03-14T05:26:21.874Z,28
2017-03-14T05:27:02.383Z,28
2017-03-14T05:27:42.859Z,32
2017-03-14T05:28:23.321Z,36
2017-03-14T05:29:03.808Z,40
2017-03-14T05:29:44.282Z,44
2017-03-14T05:30:24.762Z,48
2017-03-14T05:31:05.327Z,52
2017-03-14T05:31:45.775Z,56
2017-03-14T05:32:26.252Z,64
2017-03-14T05:33:06.765Z,68
2017-03-14T05:33:47.235Z,72
2017-03-14T05:34:27.706Z,80
2017-03-14T05:35:08.212Z,84
2017-03-14T05:35:48.671Z,92
2017-03-14T05:36:29.143Z,96
2017-03-14T05:37:09.589Z,104
2017-03-14T05:37:50.056Z,112
2017-03-14T05:38:30.585Z,124
2017-03-14T05:39:11.067Z,128
2017-03-14T05:39:51.536Z,140
2017-03-14T05:40:32.021Z,148
2017-03-14T05:41:12.456Z,156
2017-03-14T05:41:52.935Z,164
2017-03-14T05:42:33.416Z,172
2017-03-14T05:43:13.937Z,184
2017-03-14T05:43:54.413Z,192
2017-03-14T05:44:34.889Z,200
2017-03-14T05:45:15.349Z,208
2017-03-14T05:45:55.834Z,216
2017-03-14T05:46:36.328Z,224
2017-03-14T05:47:16.803Z,236
2017-03-14T05:47:57.294Z,244
2017-03-14T05:48:37.798Z,244
2017-03-14T05:49:18.276Z,252
2017-03-14T05:49:58.779Z,260
2017-03-14T05:50:39.238Z,264
2017-03-14T05:51:19.728Z,272
2017-03-14T05:52:00.192Z,280
2017-03-14T05:52:40.707Z,284
2017-03-14T05:53:21.171Z,288
2017-03-14T05:54:01.629Z,296
2017-03-14T05:54:42.125Z,304
2017-03-14T05:55:22.585Z,316
2017-03-14T05:56:03.091Z,332
2017-03-14T05:56:43.545Z,340
2017-03-14T05:57:24.028Z,348
2017-03-14T05:58:04.497Z,348
2017-03-14T05:58:44.967Z,356
2017-03-14T05:59:25.453Z,368
2017-03-14T06:00:05.945Z,372
2017-03-14T06:00:46.424Z,380
2017-03-14T06:01:26.905Z,380
2017-03-14T06:02:07.379Z,380
2017-03-14T06:02:47.868Z,384
2017-03-14T06:03:28.318Z,392
2017-03-14T06:04:08.816Z,396
2017-03-14T06:04:49.278Z,424
2017-03-14T06:05:29.778Z,444
2017-03-14T06:06:10.217Z,460
2017-03-14T06:06:50.690Z,472
2017-03-14T06:07:31.177Z,480
2017-03-14T06:08:11.670Z,480
2017-03-14T06:08:52.119Z,480
2017-03-14T06:09:32.595Z,472
2017-03-14T06:10:13.066Z,476
2017-03-14T06:10:53.531Z,484
2017-03-14T06:11:34.049Z,492
2017-03-14T06:12:14.526Z,484
2017-03-14T06:12:54.978Z,488
2017-03-14T06:13:35.441Z,504
2017-03-14T06:14:15.937Z,524
2017-03-14T06:14:56.406Z,560
2017-03-14T06:15:36.878Z,608
2017-03-14T06:16:17.374Z,652
2017-03-14T06:16:57.850Z,700
2017-03-14T06:17:38.325Z,752
2017-03-14T06:18:18.834Z,744
2017-03-14T06:18:59.315Z,712
2017-03-14T06:19:39.794Z,728
2017-03-14T06:20:20.256Z,768
2017-03-14T06:21:00.738Z,808
2017-03-14T06:21:41.204Z,840
2017-03-14T06:22:21.700Z,904
2017-03-14T06:23:02.180Z,860
2017-03-14T06:23:42.665Z,896
2017-03-14T06:24:23.140Z,952
2017-03-14T06:25:03.623Z,1044
2017-03-14T06:25:44.119Z,1100
2017-03-14T06:26:24.600Z,1128
2017-03-14T06:27:05.073Z,1180
2017-03-14T06:27:45.522Z,1124
2017-03-14T06:28:25.998Z,1136
2017-03-14T06:29:06.485Z,1168
2017-03-14T06:29:47.112Z,1252
2017-03-14T06:30:27.596Z,1288
2017-03-14T06:31:08.316Z,1324
2017-03-14T06:31:49.384Z,1368
2017-03-14T06:32:29.947Z,1400
2017-03-14T06:33:10.451Z,1420
2017-03-14T06:33:50.906Z,1432
2017-03-14T06:34:31.390Z,1424
2017-03-14T06:35:11.970Z,1440
2017-03-14T06:35:52.430Z,1444
2017-03-14T06:36:32.995Z,1480
2017-03-14T06:37:13.597Z,1500
2017-03-14T06:37:54.335Z,1496
2017-03-14T06:38:35.138Z,1488
2017-03-14T06:39:15.810Z,1476
2017-03-14T06:39:56.549Z,1528
2017-03-14T06:40:37.054Z,1576
2017-03-14T06:41:17.531Z,1640
2017-03-14T06:41:57.975Z,1620
2017-03-14T06:42:38.504Z,1684
2017-03-14T06:43:18.971Z,1760
2017-03-14T06:43:59.467Z,1804
2017-03-14T06:44:39.959Z,1816
2017-03-14T06:45:20.445Z,1840
2017-03-14T06:46:00.937Z,1836
2017-03-14T06:46:41.405Z,1876
2017-03-14T06:47:21.903Z,1920
2017-03-14T06:48:02.603Z,1932
2017-03-14T06:48:43.231Z,1968
2017-03-14T06:49:23.677Z,2056
2017-03-14T06:50:04.197Z,2100
2017-03-14T06:50:45.446Z,2060
2017-03-14T06:51:25.976Z,2024
2017-03-14T06:52:06.503Z,2092
2017-03-14T06:52:46.954Z,2208
2017-03-14T06:53:27.440Z,2268
2017-03-14T06:54:07.905Z,2308
2017-03-14T06:54:48.372Z,2256
2017-03-14T06:55:28.910Z,2280
2017-03-14T06:56:09.432Z,2368
2017-03-14T06:56:49.895Z,2388
2017-03-14T06:57:30.435Z,2440
2017-03-14T06:58:10.826Z,2464
2017-03-14T06:58:51.351Z,2448
2017-03-14T06:59:31.833Z,2524
2017-03-14T07:00:12.334Z,2548
2017-03-14T07:00:52.817Z,2592
2017-03-14T07:01:33.293Z,2708
2017-03-14T07:02:13.784Z,2804
2017-03-14T07:02:54.245Z,2812
2017-03-14T07:03:34.744Z,2868
2017-03-14T07:04:16.128Z,3016
2017-03-14T07:04:56.619Z,3108
2017-03-14T07:05:37.074Z,3144
2017-03-14T07:06:17.562Z,3176
2017-03-14T07:06:58.070Z,3096
2017-03-14T07:07:38.533Z,3080
2017-03-14T07:08:19.013Z,3072
2017-03-14T07:08:59.546Z,3064
2017-03-14T07:09:40.005Z,3052
2017-03-14T07:10:20.495Z,3000
2017-03-14T07:11:00.939Z,3044
2017-03-14T07:11:41.488Z,3112
2017-03-14T07:12:21.936Z,3088
2017-03-14T07:13:02.396Z,3128
2017-03-14T07:13:42.877Z,3324
2017-03-14T07:14:23.428Z,3488
2017-03-14T07:15:03.906Z,3572
2017-03-14T07:15:44.370Z,3736
2017-03-14T07:16:24.986Z,3696
2017-03-14T07:17:05.604Z,3768
2017-03-14T07:17:46.085Z,3868
2017-03-14T07:18:26.567Z,3772
2017-03-14T07:19:07.009Z,3772
2017-03-14T07:19:47.525Z,3840
2017-03-14T07:20:27.999Z,3812
2017-03-14T07:21:08.449Z,3812
2017-03-14T07:21:48.960Z,3900
2017-03-14T07:22:29.444Z,3948
2017-03-14T07:23:10.057Z,4148
2017-03-14T07:23:50.534Z,4236
2017-03-14T07:24:31.027Z,4124
2017-03-14T07:25:11.576Z,4220
2017-03-14T07:25:52.001Z,4388
2017-03-14T07:26:33.138Z,4480
2017-03-14T07:27:13.633Z,4484
2017-03-14T07:27:54.108Z,4508
2017-03-14T07:28:34.771Z,4536
2017-03-14T07:29:15.264Z,4660
2017-03-14T07:29:55.760Z,4604
2017-03-14T07:30:36.245Z,4524
2017-03-14T07:31:16.716Z,4424
2017-03-14T07:31:57.499Z,4280
2017-03-14T07:32:37.963Z,4196
2017-03-14T07:33:18.446Z,4164
2017-03-14T07:33:59.002Z,4244
2017-03-14T07:34:39.539Z,4352
2017-03-14T07:35:19.982Z,4476
2017-03-14T07:36:00.401Z,4616
2017-03-14T07:36:40.893Z,4644
2017-03-14T07:37:21.390Z,4760
2017-03-14T07:38:01.849Z,4872
2017-03-14T07:38:42.405Z,4916
2017-03-14T07:39:22.855Z,4904
2017-03-14T07:40:03.359Z,4456
2017-03-14T07:40:43.978Z,4328
2017-03-14T07:41:24.489Z,4500
2017-03-14T07:42:05.037Z,4756
2017-03-14T07:42:45.527Z,4836
2017-03-14T07:43:26.073Z,4700
2017-03-14T07:44:06.609Z,4516
2017-03-14T07:44:47.105Z,4492
2017-03-14T07:45:27.949Z,4208
2017-03-14T07:46:13.570Z,4184
2017-03-14T07:46:54.112Z,4192
2017-03-14T07:47:34.612Z,4108
2017-03-14T07:48:15.095Z,4156
2017-03-14T07:48:55.563Z,4388
2017-03-14T07:49:36.061Z,4820
2017-03-14T07:50:16.522Z,4944
2017-03-14T07:50:57.047Z,4856
2017-03-14T07:51:37.511Z,4816
2017-03-14T07:52:17.969Z,4884
2017-03-14T07:52:58.488Z,4896
2017-03-14T07:53:38.918Z,5112
2017-03-14T07:54:19.405Z,5100
2017-03-14T07:54:59.898Z,5028
2017-03-14T07:55:40.413Z,5068
2017-03-14T07:56:20.951Z,5128
2017-03-14T07:57:01.483Z,5140
2017-03-14T07:57:43.903Z,5232
2017-03-14T07:58:24.941Z,5292
2017-03-14T07:59:05.541Z,5292
2017-03-14T07:59:46.058Z,5276
2017-03-14T08:00:26.631Z,5240
2017-03-14T08:01:07.290Z,5272
2017-03-14T08:01:47.787Z,5220
2017-03-14T08:02:28.253Z,5204
2017-03-14T08:03:08.724Z,5316
2017-03-14T08:03:49.163Z,5328
2017-03-14T08:04:29.688Z,5556
2017-03-14T08:05:10.251Z,5728
2017-03-14T08:05:50.770Z,6068
2017-03-14T08:06:31.384Z,6284
2017-03-14T08:07:11.882Z,6280
2017-03-14T08:07:52.400Z,6292
2017-03-14T08:08:32.891Z,6084
2017-03-14T08:09:13.497Z,5864
2017-03-14T08:09:53.984Z,5692
2017-03-14T08:10:34.535Z,5548
2017-03-14T08:11:15.055Z,5536
2017-03-14T08:12:02.852Z,5396
2017-03-14T08:12:48.133Z,5056
2017-03-14T08:13:34.748Z,4620
2017-03-14T08:14:25.384Z,4272
2017-03-14T08:15:09.313Z,4184
2017-03-14T08:15:49.857Z,4196
2017-03-14T08:16:30.420Z,4256
2017-03-14T08:17:11.265Z,4288
2017-03-14T08:17:51.880Z,4336
2017-03-14T08:18:32.415Z,4420
2017-03-14T08:19:12.950Z,4544
2017-03-14T08:19:53.449Z,4664
2017-03-14T08:20:33.995Z,4872
2017-03-14T08:23:09.699Z,5388
2017-03-14T08:25:31.346Z,5784
2017-03-14T08:26:11.877Z,5800
2017-03-14T08:26:52.351Z,5736
2017-03-14T08:27:33.850Z,5636
2017-03-14T08:28:14.309Z,5512
2017-03-14T08:28:54.827Z,5376
2017-03-14T08:29:35.297Z,5188
2017-03-14T08:30:15.851Z,4980
2017-03-14T08:30:56.300Z,4780
2017-03-14T08:31:36.728Z,4592
2017-03-14T08:32:17.224Z,4440
2017-03-14T08:32:57.920Z,4384
2017-03-14T08:33:38.651Z,4360
2017-03-14T08:34:19.200Z,4360
2017-03-14T08:34:59.733Z,4420
2017-03-14T08:35:40.221Z,4464
2017-03-14T08:36:20.660Z,4500
2017-03-14T08:37:01.134Z,4508
2017-03-14T08:37:41.824Z,4524
2017-03-14T08:38:22.491Z,4536
2017-03-14T08:39:03.000Z,4524
2017-03-14T08:39:43.456Z,4504
2017-03-14T08:40:23.921Z,4508
2017-03-14T08:41:04.381Z,4508
2017-03-14T08:41:45.796Z,4544
2017-03-14T08:42:26.297Z,4588
2017-03-14T08:43:06.758Z,4612
2017-03-14T08:43:47.260Z,4692
2017-03-14T08:44:27.741Z,4796
2017-03-14T08:45:08.441Z,4864
2017-03-14T08:45:48.996Z,4984
2017-03-14T08:46:36.840Z,5140
2017-03-14T08:47:24.316Z,5316
2017-03-14T08:48:04.911Z,5508
2017-03-14T08:48:45.394Z,5700
2017-03-14T08:49:26.467Z,5904
2017-03-14T08:50:06.487Z,6052
2017-03-14T08:50:47.014Z,6224
2017-03-14T08:51:27.546Z,6388
2017-03-14T08:52:08.235Z,6492
2017-03-14T08:52:48.788Z,6564
2017-03-14T08:53:29.284Z,6608
2017-03-14T08:54:10.995Z,6664
2017-03-14T08:54:50.714Z,6668
2017-03-14T08:55:31.897Z,6740
2017-03-14T08:56:18.756Z,6880
2017-03-14T08:56:59.403Z,7036
2017-03-14T08:57:39.965Z,7196
2017-03-14T08:58:20.484Z,7404
2017-03-14T08:59:00.968Z,7636
2017-03-14T08:59:41.982Z,7920
2017-03-14T09:02:21.819Z,8840
2017-03-14T09:03:02.628Z,8788
2017-03-14T09:03:43.176Z,8580
2017-03-14T09:04:23.690Z,8228
2017-03-14T09:05:04.630Z,7856
2017-03-14T09:05:45.049Z,7480
2017-03-14T09:06:25.527Z,7208
2017-03-14T09:07:06.220Z,6976
2017-03-14T09:07:46.710Z,6660
2017-03-14T09:08:27.230Z,6356
2017-03-14T09:09:07.717Z,5956
2017-03-14T09:09:48.164Z,5552
2017-03-14T09:10:28.742Z,5072
2017-03-14T09:11:09.251Z,4748
2017-03-14T09:11:49.736Z,4528
2017-03-14T09:12:30.203Z,4280
2017-03-14T09:13:13.490Z,4124
2017-03-14T09:13:53.947Z,3904
2017-03-14T09:14:34.575Z,3696
2017-03-14T09:15:15.149Z,3704
2017-03-14T09:15:55.612Z,3740
2017-03-14T09:16:36.078Z,3808
2017-03-14T09:17:16.597Z,3916
2017-03-14T09:17:57.091Z,4052
2017-03-14T09:18:38.364Z,4224
2017-03-14T09:19:18.949Z,4380
2017-03-14T09:19:59.442Z,4520
2017-03-14T09:20:43.378Z,4640
2017-03-14T09:21:25.667Z,4852
2017-03-14T09:22:06.932Z,5152
2017-03-14T09:22:47.429Z,5420
2017-03-14T09:23:28.344Z,5732
2017-03-14T09:24:08.963Z,6052
2017-03-14T09:24:49.752Z,6240
2017-03-14T09:25:30.237Z,6288
2017-03-14T09:26:10.724Z,6536
2017-03-14T09:26:51.168Z,6608
2017-03-14T09:27:31.672Z,6888
2017-03-14T09:28:12.154Z,7020
2017-03-14T09:28:52.656Z,7092
2017-03-14T09:29:33.526Z,7096
2017-03-14T09:30:14.431Z,7148
2017-03-14T09:30:55.924Z,7148
2017-03-14T09:31:36.596Z,7200
2017-03-14T09:32:17.113Z,7520
2017-03-14T09:32:57.664Z,7548
2017-03-14T09:33:38.625Z,7488
2017-03-14T09:34:19.103Z,7504
2017-03-14T09:34:59.628Z,7540
2017-03-14T09:35:40.302Z,7524
2017-03-14T09:36:20.800Z,7492
2017-03-14T09:37:01.261Z,7612
2017-03-14T09:37:41.834Z,7716
2017-03-14T09:38:22.715Z,7760
2017-03-14T09:39:03.435Z,7632
2017-03-14T09:39:43.932Z,7632
2017-03-14T09:40:24.429Z,7472